createdAt,value
2019-03-04T00:00:20.439Z,994.26
2019-03-04T00:01:20.427Z,994.22
2019-03-04T00:02:20.423Z,994.19
2019-03-04T00:03:20.405Z,994.18
2019-03-04T00:04:20.407Z,994.19
2019-03-04T00:05:20.383Z,994.10
2019-03-04T00:06:20.375Z,994.22
2019-03-04T00:07:20.370Z,994.13
2019-03-04T00:08:20.356Z,994.11
2019-03-04T00:09:20.350Z,994.19
2019-03-04T00:10:20.332Z,994.12
2019-03-04T00:11:20.322Z,994.07
2019-03-04T00:12:20.309Z,994.12
2019-03-04T00:13:20.313Z,994.07
2019-03-04T00:14:20.298Z,994.05
2019-03-04T00:15:20.278Z,994.08
2019-03-04T00:16:20.270Z,994.07
2019-03-04T00:17:20.255Z,994.05
2019-03-04T00:18:20.245Z,994.04
2019-03-04T00:19:20.260Z,994.09
2019-03-04T00:20:20.224Z,994.04
2019-03-04T00:21:20.215Z,994.01
2019-03-04T00:22:20.202Z,993.98
2019-03-04T00:23:20.191Z,994.03
2019-03-04T00:24:20.183Z,994.01
2019-03-04T00:25:20.179Z,993.90
2019-03-04T00:26:20.163Z,993.81
2019-03-04T00:27:20.151Z,993.77
2019-03-04T00:28:20.138Z,993.67
2019-03-04T00:29:20.127Z,993.72
2019-03-04T00:30:20.124Z,993.78
2019-03-04T00:31:20.105Z,993.71
2019-03-04T00:32:20.115Z,993.52
2019-03-04T00:33:20.085Z,993.50
2019-03-04T00:34:20.073Z,993.56
2019-03-04T00:35:20.074Z,993.66
2019-03-04T00:36:20.053Z,993.69
2019-03-04T00:37:20.041Z,993.67
2019-03-04T00:38:20.030Z,993.65
2019-03-04T00:39:20.019Z,993.68
2019-03-04T00:40:20.017Z,993.70
2019-03-04T00:41:20.004Z,993.67
2019-03-04T00:42:19.986Z,993.69
2019-03-04T00:43:19.975Z,993.69
2019-03-04T00:44:19.969Z,993.63
2019-03-04T00:45:19.967Z,993.59
2019-03-04T00:46:19.978Z,993.50
2019-03-04T00:47:19.935Z,993.36
2019-03-04T00:48:19.922Z,993.44
2019-03-04T00:49:19.913Z,993.55
2019-03-04T00:50:19.910Z,993.67
2019-03-04T00:51:19.897Z,993.72
2019-03-04T00:52:19.884Z,993.62
2019-03-04T00:53:19.870Z,993.53
2019-03-04T00:54:19.861Z,993.39
2019-03-04T00:55:19.857Z,993.49
2019-03-04T00:56:19.837Z,993.52
2019-03-04T00:57:19.827Z,993.45
2019-03-04T00:58:19.816Z,993.48
2019-03-04T00:59:19.806Z,993.38
2019-03-04T01:00:19.802Z,993.31
2019-03-04T01:01:19.784Z,993.37
2019-03-04T01:02:19.772Z,993.33
2019-03-04T01:03:19.762Z,993.35
2019-03-04T01:04:19.754Z,993.19
2019-03-04T01:05:19.749Z,993.21
2019-03-04T01:06:19.730Z,993.16
2019-03-04T01:07:19.718Z,993.13
2019-03-04T01:08:19.707Z,993.16
2019-03-04T01:09:19.696Z,993.12
2019-03-04T01:10:19.697Z,993.05
2019-03-04T01:11:19.677Z,992.94
2019-03-04T01:12:19.666Z,993.04
2019-03-04T01:13:19.653Z,993.04
2019-03-04T01:14:19.643Z,993.08
2019-03-04T01:15:19.641Z,993.00
2019-03-04T01:16:19.622Z,993.03
2019-03-04T01:17:19.612Z,992.97
2019-03-04T01:18:19.601Z,992.94
2019-03-04T01:19:19.593Z,992.87
2019-03-04T01:20:19.591Z,992.88
2019-03-04T01:21:19.569Z,992.93
2019-03-04T01:22:19.557Z,992.94
2019-03-04T01:23:19.546Z,992.87
2019-03-04T01:24:19.536Z,992.86
2019-03-04T01:25:19.551Z,992.90
2019-03-04T01:26:19.518Z,992.86
2019-03-04T01:27:19.503Z,992.80
2019-03-04T01:28:19.493Z,992.78
2019-03-04T01:29:19.482Z,992.71
2019-03-04T01:30:19.472Z,992.72
2019-03-04T01:31:19.471Z,992.69
2019-03-04T01:32:19.451Z,992.68
2019-03-04T01:33:19.439Z,992.58
2019-03-04T01:34:19.428Z,992.54
2019-03-04T01:35:19.417Z,992.57
2019-03-04T01:36:19.417Z,992.55
2019-03-04T01:37:19.397Z,992.48
2019-03-04T01:38:19.384Z,992.44
2019-03-04T01:39:19.379Z,992.42
2019-03-04T01:40:19.365Z,992.36
2019-03-04T01:41:19.366Z,992.40
2019-03-04T01:42:19.344Z,992.35
2019-03-04T01:43:19.332Z,992.36
2019-03-04T01:44:19.324Z,992.36
2019-03-04T01:45:19.325Z,992.29
2019-03-04T01:46:19.308Z,992.26
2019-03-04T01:47:19.290Z,992.23
2019-03-04T01:48:19.278Z,992.25
2019-03-04T01:49:19.270Z,992.25
2019-03-04T01:50:19.265Z,992.28
2019-03-04T01:51:19.260Z,992.25
2019-03-04T01:52:19.242Z,992.22
2019-03-04T01:53:19.228Z,992.19
2019-03-04T01:54:19.215Z,992.16
2019-03-04T01:55:19.211Z,992.20
2019-03-04T01:56:19.201Z,992.22
2019-03-04T01:57:19.184Z,992.24
2019-03-04T01:58:19.171Z,992.22
2019-03-04T01:59:19.163Z,992.21
2019-03-04T02:00:19.156Z,992.26
2019-03-04T02:01:19.171Z,992.26
2019-03-04T02:02:19.130Z,992.28
2019-03-04T02:03:19.118Z,992.33
2019-03-04T02:04:19.108Z,992.33
2019-03-04T02:05:19.096Z,992.43
2019-03-04T02:06:19.087Z,992.39
2019-03-04T02:07:19.087Z,992.39
2019-03-04T02:08:19.067Z,992.34
2019-03-04T02:09:19.053Z,992.37
2019-03-04T02:10:19.043Z,992.34
2019-03-04T02:11:19.032Z,992.36
2019-03-04T02:12:19.030Z,992.39
2019-03-04T02:13:19.010Z,992.44
2019-03-04T02:14:19.007Z,992.31
2019-03-04T02:15:18.994Z,992.33
2019-03-04T02:16:18.978Z,992.35
2019-03-04T02:17:18.984Z,992.37
2019-03-04T02:18:18.957Z,992.31
2019-03-04T02:19:18.948Z,992.38
2019-03-04T02:20:18.939Z,992.32
2019-03-04T02:21:18.924Z,992.31
2019-03-04T02:22:18.922Z,992.32
2019-03-04T02:23:18.906Z,992.31
2019-03-04T02:24:18.896Z,992.35
2019-03-04T02:25:18.882Z,992.39
2019-03-04T02:26:18.872Z,992.33
2019-03-04T02:27:18.869Z,992.31
2019-03-04T02:28:18.849Z,992.42
2019-03-04T02:29:18.847Z,992.51
2019-03-04T02:30:18.838Z,992.56
2019-03-04T02:31:18.823Z,992.58
2019-03-04T02:32:18.830Z,992.59
2019-03-04T02:33:18.795Z,992.61
2019-03-04T02:34:18.785Z,992.58
2019-03-04T02:35:18.782Z,992.67
2019-03-04T02:36:18.762Z,992.57
2019-03-04T02:37:18.766Z,992.57
2019-03-04T02:38:18.753Z,992.56
2019-03-04T02:39:18.733Z,992.52
2019-03-04T02:40:18.736Z,992.45
2019-03-04T02:41:18.715Z,992.43
2019-03-04T02:42:18.707Z,992.41
2019-03-04T02:43:18.690Z,992.36
2019-03-04T02:44:18.674Z,992.37
2019-03-04T02:45:18.684Z,992.38
2019-03-04T02:46:18.655Z,992.36
2019-03-04T02:47:18.655Z,992.36
2019-03-04T02:48:18.641Z,992.31
2019-03-04T02:49:18.626Z,992.36
2019-03-04T02:50:18.613Z,992.32
2019-03-04T02:51:18.600Z,992.27
2019-03-04T02:52:18.598Z,992.28
2019-03-04T02:53:18.589Z,992.22
2019-03-04T02:54:18.568Z,992.15
2019-03-04T02:55:18.573Z,992.12
2019-03-04T02:56:18.546Z,992.10
2019-03-04T02:57:18.544Z,992.10
2019-03-04T02:58:18.525Z,992.03
2019-03-04T02:59:18.513Z,991.96
2019-03-04T03:00:18.550Z,991.95
2019-03-04T03:01:18.497Z,991.98
2019-03-04T03:02:18.491Z,992.01
2019-03-04T03:03:18.478Z,991.93
2019-03-04T03:04:18.465Z,991.93
2019-03-04T03:05:18.497Z,991.93
2019-03-04T03:06:18.441Z,991.84
2019-03-04T03:07:18.437Z,991.72
2019-03-04T03:08:18.425Z,991.69
2019-03-04T03:09:18.412Z,991.70
2019-03-04T03:10:18.396Z,991.70
2019-03-04T03:11:18.396Z,991.68
2019-03-04T03:12:18.385Z,991.65
2019-03-04T03:13:18.367Z,991.56
2019-03-04T03:14:18.359Z,991.61
2019-03-04T03:15:18.344Z,991.60
2019-03-04T03:16:18.332Z,991.52
2019-03-04T03:17:18.331Z,991.52
2019-03-04T03:18:18.310Z,991.46
2019-03-04T03:19:18.309Z,991.43
2019-03-04T03:20:18.296Z,991.36
2019-03-04T03:21:18.277Z,991.37
2019-03-04T03:22:18.274Z,991.26
2019-03-04T03:23:18.255Z,991.34
2019-03-04T03:24:18.256Z,991.38
2019-03-04T03:25:18.235Z,991.45
2019-03-04T03:26:18.225Z,991.41
2019-03-04T03:27:18.238Z,991.39
2019-03-04T03:28:18.203Z,991.40
2019-03-04T03:29:18.192Z,991.37
2019-03-04T03:30:18.201Z,991.31
2019-03-04T03:31:18.185Z,991.32
2019-03-04T03:32:18.161Z,991.31
2019-03-04T03:33:18.169Z,991.26
2019-03-04T03:34:18.158Z,991.30
2019-03-04T03:35:18.131Z,991.21
2019-03-04T03:36:18.117Z,991.26
2019-03-04T03:37:18.105Z,991.15
2019-03-04T03:38:18.102Z,991.20
2019-03-04T03:39:18.083Z,991.07
2019-03-04T03:40:18.118Z,991.01
2019-03-04T03:41:18.069Z,990.97
2019-03-04T03:42:19.113Z,990.90
2019-03-04T03:43:18.060Z,990.87
2019-03-04T03:44:18.030Z,990.93
2019-03-04T03:45:18.023Z,990.83
2019-03-04T03:46:18.010Z,990.91
2019-03-04T03:47:17.996Z,990.88
2019-03-04T03:48:17.996Z,990.87
2019-03-04T03:49:17.974Z,990.83
2019-03-04T03:50:17.977Z,990.80
2019-03-04T03:51:17.993Z,990.74
2019-03-04T03:52:17.942Z,990.75
2019-03-04T03:53:17.948Z,990.76
2019-03-04T03:54:17.921Z,990.74
2019-03-04T03:55:17.912Z,990.69
2019-03-04T03:56:17.900Z,990.67
2019-03-04T03:57:17.887Z,990.71
2019-03-04T03:58:17.889Z,990.74
2019-03-04T03:59:17.868Z,990.80
2019-03-04T04:00:17.858Z,990.82
2019-03-04T04:01:17.846Z,990.78
2019-03-04T04:02:17.838Z,990.83
2019-03-04T04:03:17.835Z,990.76
2019-03-04T04:04:17.816Z,990.76
2019-03-04T04:05:17.807Z,990.75
2019-03-04T04:06:17.791Z,990.80
2019-03-04T04:07:17.780Z,990.86
2019-03-04T04:08:17.781Z,990.80
2019-03-04T04:09:17.759Z,990.74
2019-03-04T04:10:17.755Z,990.73
2019-03-04T04:11:17.738Z,990.73
2019-03-04T04:12:17.734Z,990.69
2019-03-04T04:13:17.725Z,990.66
2019-03-04T04:14:17.718Z,990.64
2019-03-04T04:15:17.695Z,990.71
2019-03-04T04:16:17.684Z,990.59
2019-03-04T04:17:17.672Z,990.47
2019-03-04T04:18:17.674Z,990.46
2019-03-04T04:19:17.651Z,990.41
2019-03-04T04:20:17.648Z,990.43
2019-03-04T04:21:17.629Z,990.45
2019-03-04T04:22:17.617Z,990.47
2019-03-04T04:23:17.621Z,990.47
2019-03-04T04:24:17.598Z,990.38
2019-03-04T04:25:17.586Z,990.30
2019-03-04T04:26:17.574Z,990.38
2019-03-04T04:27:17.570Z,990.31
2019-03-04T04:28:17.562Z,990.29
2019-03-04T04:29:17.543Z,990.26
2019-03-04T04:30:17.535Z,990.23
2019-03-04T04:31:17.521Z,990.20
2019-03-04T04:32:17.509Z,990.22
2019-03-04T04:33:17.508Z,990.20
2019-03-04T04:34:17.490Z,990.11
2019-03-04T04:35:17.477Z,990.05
2019-03-04T04:36:17.467Z,990.04
2019-03-04T04:37:17.458Z,989.98
2019-03-04T04:38:17.455Z,989.97
2019-03-04T04:39:17.444Z,989.96
2019-03-04T04:40:17.423Z,989.94
2019-03-04T04:41:17.412Z,989.91
2019-03-04T04:42:17.404Z,989.83
2019-03-04T04:43:17.403Z,989.80
2019-03-04T04:44:17.380Z,989.84
2019-03-04T04:45:17.369Z,989.88
2019-03-04T04:46:17.358Z,989.81
2019-03-04T04:47:17.348Z,989.83
2019-03-04T04:48:17.346Z,989.83
2019-03-04T04:49:17.326Z,989.82
2019-03-04T04:50:17.315Z,989.76
2019-03-04T04:51:17.304Z,989.75
2019-03-04T04:52:17.293Z,989.72
2019-03-04T04:53:17.291Z,989.69
2019-03-04T04:54:17.271Z,989.69
2019-03-04T04:55:17.261Z,989.64
2019-03-04T04:56:17.253Z,989.68
2019-03-04T04:57:17.239Z,989.67
2019-03-04T04:58:17.237Z,989.59
2019-03-04T04:59:17.219Z,989.62
2019-03-04T05:00:17.207Z,989.58
2019-03-04T05:01:17.198Z,989.60
2019-03-04T05:02:17.191Z,989.62
2019-03-04T05:03:17.185Z,989.61
2019-03-04T05:04:17.168Z,989.62
2019-03-04T05:05:17.154Z,989.61
2019-03-04T05:06:17.141Z,989.63
2019-03-04T05:07:17.136Z,989.59
2019-03-04T05:08:17.129Z,989.62
2019-03-04T05:09:17.110Z,989.65
2019-03-04T05:10:17.099Z,989.59
2019-03-04T05:11:17.088Z,989.62
2019-03-04T05:12:17.080Z,989.58
2019-03-04T05:13:17.074Z,989.56
2019-03-04T05:14:17.056Z,989.56
2019-03-04T05:15:17.047Z,989.54
2019-03-04T05:16:17.035Z,989.50
2019-03-04T05:17:17.024Z,989.47
2019-03-04T05:18:17.022Z,989.59
2019-03-04T05:19:17.002Z,989.53
2019-03-04T05:20:16.996Z,989.55
2019-03-04T05:21:16.981Z,989.57
2019-03-04T05:22:16.972Z,989.53
2019-03-04T05:23:16.970Z,989.54
2019-03-04T05:24:16.952Z,989.48
2019-03-04T05:25:16.944Z,989.38
2019-03-04T05:26:16.928Z,989.38
2019-03-04T05:27:16.930Z,989.32
2019-03-04T05:28:16.914Z,989.32
2019-03-04T05:29:16.895Z,989.20
2019-03-04T05:30:16.886Z,989.16
2019-03-04T05:31:16.875Z,989.19
2019-03-04T05:32:16.862Z,989.15
2019-03-04T05:33:16.860Z,989.11
2019-03-04T05:34:16.840Z,989.08
2019-03-04T05:35:16.834Z,989.00
2019-03-04T05:36:16.829Z,989.06
2019-03-04T05:37:16.813Z,989.08
2019-03-04T05:38:16.807Z,989.02
2019-03-04T05:39:16.785Z,989.09
2019-03-04T05:40:16.776Z,989.09
2019-03-04T05:41:16.767Z,989.05
2019-03-04T05:42:16.755Z,989.08
2019-03-04T05:43:16.774Z,989.00
2019-03-04T05:44:16.733Z,989.02
2019-03-04T05:45:16.721Z,989.00
2019-03-04T05:46:16.711Z,989.03
2019-03-04T05:47:16.706Z,988.97
2019-03-04T05:48:16.689Z,989.01
2019-03-04T05:49:16.693Z,988.99
2019-03-04T05:50:16.670Z,988.97
2019-03-04T05:51:16.657Z,988.95
2019-03-04T05:52:16.645Z,989.01
2019-03-04T05:53:16.635Z,988.98
2019-03-04T05:54:16.637Z,988.95
2019-03-04T05:55:16.614Z,988.95
2019-03-04T05:56:16.605Z,989.02
2019-03-04T05:57:16.592Z,988.97
2019-03-04T05:58:16.581Z,988.93
2019-03-04T05:59:19.687Z,988.98
2019-03-04T06:00:16.568Z,988.99
2019-03-04T06:01:16.549Z,988.97
2019-03-04T06:02:16.538Z,988.95
2019-03-04T06:03:16.528Z,988.97
2019-03-04T06:04:16.528Z,988.94
2019-03-04T06:05:16.508Z,988.89
2019-03-04T06:06:16.501Z,988.91
2019-03-04T06:07:16.484Z,988.88
2019-03-04T06:08:16.472Z,988.91
2019-03-04T06:09:16.470Z,988.82
2019-03-04T06:10:16.459Z,988.85
2019-03-04T06:11:16.440Z,988.75
2019-03-04T06:12:16.430Z,988.78
2019-03-04T06:13:16.420Z,988.79
2019-03-04T06:14:16.418Z,988.85
2019-03-04T06:15:16.399Z,988.84
2019-03-04T06:16:16.389Z,988.80
2019-03-04T06:17:16.376Z,988.76
2019-03-04T06:18:16.367Z,988.76
2019-03-04T06:19:16.363Z,988.76
2019-03-04T06:20:16.346Z,988.68
2019-03-04T06:21:16.334Z,988.80
2019-03-04T06:22:16.324Z,988.75
2019-03-04T06:23:16.313Z,988.68
2019-03-04T06:24:16.336Z,988.69
2019-03-04T06:25:16.292Z,988.53
2019-03-04T06:26:16.280Z,988.51
2019-03-04T06:27:16.271Z,988.44
2019-03-04T06:28:16.260Z,988.47
2019-03-04T06:29:16.258Z,988.38
2019-03-04T06:30:16.237Z,988.44
2019-03-04T06:31:16.227Z,988.37
2019-03-04T06:32:16.217Z,988.31
2019-03-04T06:33:16.207Z,988.34
2019-03-04T06:34:16.204Z,988.30
2019-03-04T06:35:16.190Z,988.35
2019-03-04T06:36:16.174Z,988.33
2019-03-04T06:37:16.162Z,988.31
2019-03-04T06:38:16.153Z,988.26
2019-03-04T06:39:16.152Z,988.35
2019-03-04T06:40:16.134Z,988.27
2019-03-04T06:41:16.120Z,988.22
2019-03-04T06:42:16.111Z,988.31
2019-03-04T06:43:16.100Z,988.22
2019-03-04T06:44:16.096Z,988.13
2019-03-04T06:45:16.079Z,988.10
2019-03-04T06:46:16.070Z,988.10
2019-03-04T06:47:16.056Z,988.14
2019-03-04T06:48:16.046Z,988.10
2019-03-04T06:49:16.043Z,988.07
2019-03-04T06:50:16.024Z,988.05
2019-03-04T06:51:16.013Z,988.01
2019-03-04T06:52:16.003Z,988.01
2019-03-04T06:53:15.991Z,987.98
2019-03-04T06:54:15.989Z,988.00
2019-03-04T06:55:15.970Z,987.91
2019-03-04T06:56:15.960Z,987.94
2019-03-04T06:57:15.949Z,988.07
2019-03-04T06:58:15.939Z,988.10
2019-03-04T06:59:15.937Z,988.02
2019-03-04T07:00:15.917Z,987.95
2019-03-04T07:01:15.909Z,987.87
2019-03-04T07:02:15.896Z,987.86
2019-03-04T07:03:15.885Z,987.86
2019-03-04T07:04:15.923Z,987.91
2019-03-04T07:05:15.863Z,987.91
2019-03-04T07:06:15.853Z,987.88
2019-03-04T07:07:15.843Z,987.78
2019-03-04T07:08:15.872Z,987.76
2019-03-04T07:09:15.823Z,987.70
2019-03-04T07:10:15.819Z,987.71
2019-03-04T07:11:15.801Z,987.61
2019-03-04T07:12:15.793Z,987.60
2019-03-04T07:13:15.779Z,987.44
2019-03-04T07:14:15.768Z,987.56
2019-03-04T07:15:15.767Z,987.56
2019-03-04T07:16:15.749Z,987.53
2019-03-04T07:17:15.737Z,987.43
2019-03-04T07:18:15.726Z,987.47
2019-03-04T07:19:15.715Z,987.38
2019-03-04T07:20:15.713Z,987.41
2019-03-04T07:21:15.694Z,987.38
2019-03-04T07:22:15.685Z,987.28
2019-03-04T07:23:15.674Z,987.32
2019-03-04T07:24:15.661Z,987.30
2019-03-04T07:25:15.662Z,987.22
2019-03-04T07:26:15.644Z,987.24
2019-03-04T07:27:15.630Z,987.23
2019-03-04T07:28:15.618Z,987.34
2019-03-04T07:29:15.607Z,987.36
2019-03-04T07:30:15.608Z,987.32
2019-03-04T07:31:15.588Z,987.27
2019-03-04T07:32:15.578Z,987.23
2019-03-04T07:33:15.565Z,987.17
2019-03-04T07:34:15.556Z,986.93
2019-03-04T07:35:15.553Z,987.00
2019-03-04T07:36:15.532Z,987.08
2019-03-04T07:37:15.522Z,987.03
2019-03-04T07:38:15.515Z,987.01
2019-03-04T07:39:15.504Z,987.03
2019-03-04T07:40:16.470Z,987.04
2019-03-04T07:41:15.481Z,987.03
2019-03-04T07:42:15.468Z,986.99
2019-03-04T07:43:15.458Z,986.98
2019-03-04T07:44:15.448Z,986.97
2019-03-04T07:45:15.449Z,986.94
2019-03-04T07:46:15.462Z,986.77
2019-03-04T07:47:15.416Z,986.75
2019-03-04T07:48:15.403Z,986.78
2019-03-04T07:49:15.405Z,986.73
2019-03-04T07:50:15.393Z,986.81
2019-03-04T07:51:15.371Z,986.74
2019-03-04T07:52:15.361Z,986.81
2019-03-04T07:53:15.354Z,986.80
2019-03-04T07:54:15.338Z,986.74
2019-03-04T07:55:15.335Z,986.76
2019-03-04T07:56:15.321Z,986.64
2019-03-04T07:57:15.308Z,986.61
2019-03-04T07:58:15.296Z,986.54
2019-03-04T07:59:15.283Z,986.55
2019-03-04T08:00:15.285Z,986.48
2019-03-04T08:01:15.261Z,986.54
2019-03-04T08:02:15.252Z,986.60
2019-03-04T08:03:15.262Z,986.58
2019-03-04T08:04:15.231Z,986.58
2019-03-04T08:05:15.228Z,986.58
2019-03-04T08:06:15.209Z,986.56
2019-03-04T08:07:15.198Z,986.52
2019-03-04T08:08:15.188Z,986.55
2019-03-04T08:09:15.181Z,986.51
2019-03-04T08:10:15.173Z,986.47
2019-03-04T08:11:15.154Z,986.44
2019-03-04T08:12:15.143Z,986.46
2019-03-04T08:13:15.134Z,986.47
2019-03-04T08:14:15.120Z,986.45
2019-03-04T08:15:15.121Z,986.43
2019-03-04T08:16:15.099Z,986.32
2019-03-04T08:17:15.088Z,986.25
2019-03-04T08:18:15.079Z,986.25
2019-03-04T08:19:15.065Z,986.22
2019-03-04T08:20:15.088Z,986.27
2019-03-04T08:21:15.042Z,986.21
2019-03-04T08:22:15.031Z,986.14
2019-03-04T08:23:15.021Z,986.03
2019-03-04T08:24:15.011Z,985.94
2019-03-04T08:25:15.000Z,985.88
2019-03-04T08:26:14.996Z,985.87
2019-03-04T08:27:14.976Z,985.78
2019-03-04T08:28:14.966Z,985.78
2019-03-04T08:29:14.978Z,985.65
2019-03-04T08:30:14.944Z,985.58
2019-03-04T08:31:14.942Z,985.56
2019-03-04T08:32:14.921Z,985.57
2019-03-04T08:33:14.911Z,985.63
2019-03-04T08:34:14.899Z,985.55
2019-03-04T08:35:14.895Z,985.39
2019-03-04T08:36:14.888Z,985.32
2019-03-04T08:37:14.864Z,985.33
2019-03-04T08:38:14.854Z,985.40
2019-03-04T08:39:14.844Z,985.53
2019-03-04T08:40:14.834Z,985.39
2019-03-04T08:41:14.833Z,985.37
2019-03-04T08:42:14.810Z,985.20
2019-03-04T08:43:14.799Z,985.56
2019-03-04T08:44:14.789Z,985.61
2019-03-04T08:45:14.775Z,985.40
2019-03-04T08:46:14.773Z,985.29
2019-03-04T08:47:14.771Z,985.19
2019-03-04T08:48:14.748Z,985.16
2019-03-04T08:49:14.730Z,985.17
2019-03-04T08:50:14.722Z,985.01
2019-03-04T08:51:14.716Z,984.94
2019-03-04T08:52:14.705Z,985.00
2019-03-04T08:53:14.689Z,985.05
2019-03-04T08:54:14.681Z,985.14
2019-03-04T08:55:14.664Z,985.05
2019-03-04T08:56:14.662Z,984.83
2019-03-04T08:57:14.643Z,984.85
2019-03-04T08:58:14.632Z,984.79
2019-03-04T08:59:14.619Z,984.93
2019-03-04T09:00:14.609Z,985.15
2019-03-04T09:01:14.608Z,985.14
2019-03-04T09:02:14.588Z,985.14
2019-03-04T09:03:14.579Z,985.15
2019-03-04T09:04:14.564Z,985.19
2019-03-04T09:05:14.557Z,985.05
2019-03-04T09:06:14.552Z,984.99
2019-03-04T09:07:14.535Z,984.95
2019-03-04T09:08:14.526Z,985.01
2019-03-04T09:09:14.512Z,984.97
2019-03-04T09:10:14.503Z,984.94
2019-03-04T09:11:14.499Z,984.79
2019-03-04T09:12:14.479Z,984.61
2019-03-04T09:13:14.467Z,984.61
2019-03-04T09:14:14.455Z,984.56
2019-03-04T09:15:14.450Z,984.63
2019-03-04T09:16:14.441Z,984.66
2019-03-04T09:17:14.423Z,984.57
2019-03-04T09:18:14.411Z,984.63
2019-03-04T09:19:14.403Z,984.62
2019-03-04T09:20:14.394Z,984.60
2019-03-04T09:21:14.392Z,984.52
2019-03-04T09:22:14.367Z,984.39
2019-03-04T09:23:14.356Z,984.44
2019-03-04T09:24:14.346Z,984.39
2019-03-04T09:25:14.334Z,984.24
2019-03-04T09:26:14.335Z,984.26
2019-03-04T09:27:14.313Z,984.19
2019-03-04T09:28:14.307Z,984.20
2019-03-04T09:29:14.289Z,984.24
2019-03-04T09:30:14.279Z,984.26
2019-03-04T09:31:14.277Z,984.37
2019-03-04T09:32:14.261Z,984.39
2019-03-04T09:33:14.245Z,984.40
2019-03-04T09:34:14.236Z,984.48
2019-03-04T09:35:14.225Z,984.46
2019-03-04T09:36:14.244Z,984.40
2019-03-04T09:37:14.202Z,984.37
2019-03-04T09:38:14.193Z,984.35
2019-03-04T09:39:14.180Z,984.32
2019-03-04T09:40:14.172Z,984.25
2019-03-04T09:41:14.162Z,984.28
2019-03-04T09:42:14.155Z,984.29
2019-03-04T09:43:14.137Z,984.27
2019-03-04T09:44:14.127Z,984.20
2019-03-04T09:45:14.115Z,984.16
2019-03-04T09:46:14.104Z,984.26
2019-03-04T09:47:14.102Z,984.26
2019-03-04T09:48:14.089Z,984.21
2019-03-04T09:49:14.072Z,984.28
2019-03-04T09:50:14.061Z,984.28
2019-03-04T09:51:23.843Z,984.31
2019-03-04T09:52:15.045Z,984.26
2019-03-04T09:53:14.027Z,984.24
2019-03-04T09:54:14.016Z,984.21
2019-03-04T09:55:14.010Z,984.24
2019-03-04T09:56:13.995Z,984.20
2019-03-04T09:57:13.995Z,984.23
2019-03-04T09:58:13.971Z,984.19
2019-03-04T09:59:13.960Z,984.09
2019-03-04T10:00:13.952Z,984.11
2019-03-04T10:01:13.940Z,984.18
2019-03-04T10:02:13.938Z,984.16
2019-03-04T10:03:13.915Z,984.01
2019-03-04T10:04:13.913Z,984.05
2019-03-04T10:05:13.896Z,984.07
2019-03-04T10:06:13.887Z,983.98
2019-03-04T10:07:13.887Z,984.08
2019-03-04T10:08:13.866Z,984.06
2019-03-04T10:09:13.851Z,984.00
2019-03-04T10:10:15.922Z,983.97
2019-03-04T10:11:13.833Z,983.91
2019-03-04T10:12:13.828Z,983.94
2019-03-04T10:13:13.809Z,983.87
2019-03-04T10:14:13.799Z,983.82
2019-03-04T10:15:13.785Z,983.83
2019-03-04T10:16:18.614Z,983.82
2019-03-04T10:17:14.773Z,983.68
2019-03-04T10:18:13.808Z,983.63
2019-03-04T10:19:13.748Z,983.57
2019-03-04T10:20:13.730Z,983.55
2019-03-04T10:21:13.719Z,983.58
2019-03-04T10:22:13.713Z,983.50
2019-03-04T10:23:13.705Z,983.50
2019-03-04T10:24:13.686Z,983.48
2019-03-04T10:25:13.675Z,983.45
2019-03-04T10:26:22.198Z,983.45
2019-03-04T10:27:14.653Z,983.34
2019-03-04T10:28:13.653Z,983.29
2019-03-04T10:29:13.632Z,983.34
2019-03-04T10:30:13.622Z,983.41
2019-03-04T10:31:13.620Z,983.23
2019-03-04T10:32:13.597Z,983.29
2019-03-04T10:33:13.597Z,983.27
2019-03-04T10:34:13.579Z,983.16
2019-03-04T10:35:13.566Z,983.15
2019-03-04T10:36:13.557Z,983.17
2019-03-04T10:37:13.549Z,983.15
2019-03-04T10:38:22.305Z,983.23
2019-03-04T10:39:14.522Z,983.26
2019-03-04T10:40:15.561Z,983.24
2019-03-04T10:41:13.508Z,983.20
2019-03-04T10:42:13.490Z,983.16
2019-03-04T10:43:13.490Z,983.15
2019-03-04T10:44:13.468Z,983.14
2019-03-04T10:45:13.460Z,983.15
2019-03-04T10:46:13.447Z,983.15
2019-03-04T10:47:13.436Z,983.04
2019-03-04T10:48:13.451Z,983.07
2019-03-04T10:49:13.416Z,982.98
2019-03-04T10:50:13.405Z,983.06
2019-03-04T10:51:13.391Z,982.91
2019-03-04T10:52:13.380Z,982.99
2019-03-04T10:53:13.369Z,983.09
2019-03-04T10:54:13.368Z,983.01
2019-03-04T10:55:13.347Z,982.90
2019-03-04T10:56:13.338Z,982.80
2019-03-04T10:57:13.326Z,982.93
2019-03-04T10:58:13.320Z,982.74
2019-03-04T10:59:13.315Z,982.77
2019-03-04T11:00:13.303Z,982.85
2019-03-04T11:01:13.283Z,982.78
2019-03-04T11:02:13.278Z,982.75
2019-03-04T11:03:13.262Z,982.72
2019-03-04T11:04:13.264Z,982.82
2019-03-04T11:05:13.240Z,982.82
2019-03-04T11:06:13.229Z,982.69
2019-03-04T11:07:13.219Z,982.72
2019-03-04T11:08:13.211Z,982.71
2019-03-04T11:09:13.208Z,982.90
2019-03-04T11:10:13.185Z,982.93
2019-03-04T11:11:13.177Z,982.99
2019-03-04T11:12:14.139Z,982.98
2019-03-04T11:13:13.180Z,983.04
2019-03-04T11:14:13.173Z,982.89
2019-03-04T11:15:13.132Z,982.90
2019-03-04T11:16:13.122Z,982.82
2019-03-04T11:17:13.111Z,983.03
2019-03-04T11:18:13.109Z,983.04
2019-03-04T11:19:13.096Z,983.01
2019-03-04T11:20:13.077Z,982.97
2019-03-04T11:21:13.070Z,983.00
2019-03-04T11:22:13.055Z,983.22
2019-03-04T11:23:15.021Z,982.98
2019-03-04T11:24:13.048Z,983.04
2019-03-04T11:25:13.037Z,983.03
2019-03-04T11:26:13.013Z,983.54
2019-03-04T11:27:13.000Z,984.19
2019-03-04T11:28:12.998Z,984.42
2019-03-04T11:29:13.456Z,984.00
2019-03-04T11:30:12.975Z,984.56
2019-03-04T11:31:12.964Z,984.44
2019-03-04T11:32:12.949Z,984.56
2019-03-04T11:33:12.940Z,984.32
2019-03-04T11:34:12.935Z,984.45
2019-03-04T11:35:12.916Z,984.48
2019-03-04T11:36:12.905Z,984.65
2019-03-04T11:37:12.900Z,984.64
2019-03-04T11:38:12.882Z,984.90
2019-03-04T11:39:12.903Z,984.80
2019-03-04T11:40:12.886Z,984.76
2019-03-04T11:41:12.849Z,984.81
2019-03-04T11:42:12.846Z,984.79
2019-03-04T11:43:12.827Z,984.92
2019-03-04T11:44:12.816Z,984.92
2019-03-04T11:45:12.824Z,984.92
2019-03-04T11:46:12.797Z,984.97
2019-03-04T11:47:12.784Z,985.02
2019-03-04T11:48:12.773Z,984.94
2019-03-04T11:49:12.764Z,984.82
2019-03-04T11:50:12.762Z,984.88
2019-03-04T11:51:12.738Z,984.92
2019-03-04T11:52:12.728Z,984.89
2019-03-04T11:53:12.716Z,984.87
2019-03-04T11:54:12.752Z,984.73
2019-03-04T11:55:12.701Z,984.85
2019-03-04T11:56:12.683Z,984.99
2019-03-04T11:57:12.671Z,984.91
2019-03-04T11:58:12.662Z,984.63
2019-03-04T11:59:12.650Z,984.86
2019-03-04T12:00:12.647Z,984.66
2019-03-04T12:01:12.628Z,984.62
2019-03-04T12:02:12.618Z,984.62
2019-03-04T12:03:12.608Z,984.57
2019-03-04T12:04:12.597Z,984.47
2019-03-04T12:05:12.594Z,984.44
2019-03-04T12:06:12.579Z,984.46
2019-03-04T12:07:12.565Z,984.52
2019-03-04T12:08:12.605Z,984.37
2019-03-04T12:09:12.547Z,984.29
2019-03-04T12:10:12.542Z,984.26
2019-03-04T12:11:12.521Z,984.28
2019-03-04T12:12:12.510Z,984.27
2019-03-04T12:13:12.499Z,984.31
2019-03-04T12:14:12.492Z,984.00
2019-03-04T12:15:12.486Z,984.12
2019-03-04T12:16:12.468Z,984.31
2019-03-04T12:17:12.461Z,984.14
2019-03-04T12:18:12.448Z,984.20
2019-03-04T12:19:12.437Z,984.16
2019-03-04T12:20:12.433Z,984.00
2019-03-04T12:21:12.417Z,983.98
2019-03-04T12:22:12.404Z,984.10
2019-03-04T12:23:12.394Z,984.11
2019-03-04T12:24:12.383Z,984.11
2019-03-04T12:25:12.383Z,984.07
2019-03-04T12:26:12.361Z,984.14
2019-03-04T12:27:12.351Z,984.08
2019-03-04T12:28:12.341Z,984.04